createdAt,value
2018-06-27T00:00:09.258Z,8.50
2018-06-27T00:01:09.244Z,8.30
2018-06-27T00:02:09.251Z,7.90
2018-06-27T00:03:09.259Z,8.30
2018-06-27T00:04:09.233Z,7.80
2018-06-27T00:05:09.233Z,8.80
2018-06-27T00:06:09.245Z,8.50
2018-06-27T00:07:09.222Z,8.20
2018-06-27T00:08:09.209Z,8.50
2018-06-27T00:09:09.212Z,8.50
2018-06-27T00:10:09.214Z,8.30
2018-06-27T00:11:09.205Z,8.40
2018-06-27T00:12:09.199Z,8.30
2018-06-27T00:13:09.245Z,8.50
2018-06-27T00:14:09.194Z,8.50
2018-06-27T00:15:09.191Z,8.60
2018-06-27T00:16:09.191Z,8.90
2018-06-27T00:17:09.181Z,8.50
2018-06-27T00:18:09.189Z,8.10
2018-06-27T00:19:09.173Z,9.00
2018-06-27T00:20:09.167Z,9.00
2018-06-27T00:21:09.176Z,9.00
2018-06-27T00:22:09.158Z,9.20
2018-06-27T00:23:09.176Z,9.60
2018-06-27T00:24:09.150Z,9.30
2018-06-27T00:25:09.149Z,9.10
2018-06-27T00:26:09.173Z,9.40
2018-06-27T00:27:09.140Z,9.00
2018-06-27T00:28:09.155Z,9.60
2018-06-27T00:29:09.144Z,9.20
2018-06-27T00:30:09.131Z,9.50
2018-06-27T00:31:09.122Z,9.30
2018-06-27T00:32:09.116Z,9.30
2018-06-27T00:33:09.119Z,9.40
2018-06-27T00:34:09.110Z,9.40
2018-06-27T00:35:09.109Z,9.00
2018-06-27T00:36:09.103Z,10.30
2018-06-27T00:37:09.103Z,10.20
2018-06-27T00:38:09.094Z,10.00
2018-06-27T00:39:09.093Z,10.50
2018-06-27T00:40:09.084Z,10.60
2018-06-27T00:41:09.084Z,10.40
2018-06-27T00:42:09.090Z,11.00
2018-06-27T00:43:09.073Z,10.90
2018-06-27T00:44:09.070Z,11.00
2018-06-27T00:45:09.100Z,11.90
2018-06-27T00:46:09.062Z,11.40
2018-06-27T00:47:09.060Z,11.70
2018-06-27T00:48:09.051Z,11.90
2018-06-27T00:49:09.043Z,12.10
2018-06-27T00:50:09.047Z,12.20
2018-06-27T00:51:09.037Z,12.00
2018-06-27T00:52:09.051Z,12.00
2018-06-27T00:53:09.030Z,11.90
2018-06-27T00:54:09.018Z,12.10
2018-06-27T00:55:09.025Z,12.20
2018-06-27T00:56:09.015Z,12.50
2018-06-27T00:57:09.014Z,11.70
2018-06-27T00:58:09.004Z,11.80
2018-06-27T00:59:09.000Z,12.50
2018-06-27T01:00:09.008Z,12.90
2018-06-27T01:01:09.012Z,12.70
2018-06-27T01:02:09.013Z,12.20
2018-06-27T01:03:08.984Z,12.80
2018-06-27T01:04:08.980Z,12.00
2018-06-27T01:05:08.973Z,12.20
2018-06-27T01:06:08.971Z,12.20
2018-06-27T01:07:08.963Z,12.50
2018-06-27T01:08:08.968Z,13.00
2018-06-27T01:09:08.956Z,12.30
2018-06-27T01:10:08.954Z,12.80
2018-06-27T01:11:08.952Z,13.10
2018-06-27T01:12:08.941Z,13.10
2018-06-27T01:13:08.940Z,12.60
2018-06-27T01:14:08.937Z,12.40
2018-06-27T01:15:08.992Z,13.60
2018-06-27T01:16:08.925Z,12.90
2018-06-27T01:17:08.918Z,13.50
2018-06-27T01:18:08.923Z,12.80
2018-06-27T01:19:08.911Z,13.20
2018-06-27T01:20:08.923Z,13.70
2018-06-27T01:21:09.058Z,13.70
2018-06-27T01:22:08.899Z,13.40
2018-06-27T01:23:08.901Z,13.10
2018-06-27T01:24:08.890Z,13.50
2018-06-27T01:25:08.885Z,13.20
2018-06-27T01:26:08.882Z,14.30
2018-06-27T01:27:08.879Z,14.30
2018-06-27T01:28:08.875Z,14.30
2018-06-27T01:29:08.904Z,13.80
2018-06-27T01:30:08.864Z,14.90
2018-06-27T01:31:08.892Z,14.40
2018-06-27T02:04:01.678Z,7.50
2018-06-27T02:05:01.648Z,17.60
2018-06-27T02:06:01.657Z,18.70
2018-06-27T02:07:01.627Z,19.60
2018-06-27T02:08:01.614Z,20.40
2018-06-27T02:09:01.610Z,20.20
2018-06-27T02:10:01.624Z,19.60
2018-06-27T02:11:01.588Z,18.80
2018-06-27T02:12:01.576Z,17.70
2018-06-27T02:13:01.576Z,17.20
2018-06-27T02:14:01.585Z,17.90
2018-06-27T02:15:01.566Z,17.20
2018-06-27T02:16:01.557Z,17.60
2018-06-27T02:17:01.549Z,17.70
2018-06-27T02:18:01.549Z,16.70
2018-06-27T02:19:01.529Z,15.60
2018-06-27T02:20:01.529Z,16.30
2018-06-27T02:21:01.544Z,16.60
2018-06-27T02:22:01.521Z,16.30
2018-06-27T02:23:01.709Z,16.00
2018-06-27T02:24:01.549Z,15.90
2018-06-27T02:25:01.505Z,14.80
2018-06-27T02:26:01.498Z,14.20
2018-06-27T02:27:01.532Z,14.60
2018-06-27T02:28:01.483Z,14.50
2018-06-27T02:29:01.512Z,14.20
2018-06-27T02:30:01.488Z,14.00
2018-06-27T02:31:01.517Z,14.20
2018-06-27T02:32:01.473Z,14.50
2018-06-27T02:33:01.470Z,14.20
2018-06-27T02:34:01.465Z,14.10
2018-06-27T02:35:01.462Z,13.70
2018-06-27T02:36:01.459Z,13.60
2018-06-27T02:37:01.458Z,13.50
2018-06-27T02:38:01.445Z,13.60
2018-06-27T02:39:01.449Z,14.00
2018-06-27T02:40:01.440Z,14.20
2018-06-27T02:41:01.447Z,13.40
2018-06-27T02:42:01.426Z,13.80
2018-06-27T02:43:01.425Z,12.60
2018-06-27T02:44:01.423Z,13.40
2018-06-27T02:45:01.421Z,13.60
2018-06-27T02:46:01.410Z,14.00
2018-06-27T02:47:01.421Z,13.20
2018-06-27T02:48:01.396Z,13.50
2018-06-27T02:49:01.398Z,13.20
2018-06-27T02:50:01.394Z,13.60
2018-06-27T02:51:01.399Z,13.40
2018-06-27T02:52:01.382Z,13.10
2018-06-27T02:53:01.384Z,14.10
2018-06-27T02:54:01.378Z,14.10
2018-06-27T02:55:01.373Z,13.20
2018-06-27T02:56:01.371Z,12.70
2018-06-27T02:57:01.523Z,13.80
2018-06-27T02:58:01.390Z,13.60
2018-06-27T02:59:01.357Z,12.90
2018-06-27T03:00:01.560Z,12.60
2018-06-27T03:01:01.348Z,12.50
2018-06-27T03:02:01.346Z,13.60
2018-06-27T03:03:01.330Z,13.50
2018-06-27T03:04:01.335Z,13.40
2018-06-27T03:05:01.325Z,13.70
2018-06-27T03:06:01.334Z,13.20
2018-06-27T03:07:01.329Z,12.90
2018-06-27T03:08:01.330Z,13.60
2018-06-27T03:09:01.369Z,13.20
2018-06-27T03:10:01.318Z,13.70
2018-06-27T03:11:01.308Z,13.70
2018-06-27T03:12:01.311Z,13.60
2018-06-27T03:13:01.299Z,13.40
2018-06-27T03:14:01.296Z,13.20
2018-06-27T03:15:01.289Z,13.50
2018-06-27T03:16:01.312Z,13.40
2018-06-27T03:17:01.279Z,12.70
2018-06-27T03:18:01.275Z,14.00
2018-06-27T03:19:01.284Z,13.80
2018-06-27T03:20:01.277Z,13.20
2018-06-27T03:21:01.261Z,13.10
2018-06-27T03:22:01.261Z,13.50
2018-06-27T03:23:01.254Z,13.50
2018-06-27T03:24:01.250Z,13.50
2018-06-27T03:25:01.248Z,13.60
2018-06-27T03:26:01.245Z,13.60
2018-06-27T03:27:01.240Z,13.30
2018-06-27T03:28:01.234Z,13.40
2018-06-27T03:29:01.232Z,14.00
2018-06-27T03:30:01.229Z,13.20
2018-06-27T03:31:01.225Z,13.40
2018-06-27T03:32:01.220Z,13.00
2018-06-27T03:33:01.211Z,13.60
2018-06-27T03:34:01.210Z,13.00
2018-06-27T03:35:01.210Z,13.40
2018-06-27T03:36:01.210Z,13.50
2018-06-27T03:37:01.197Z,12.80
2018-06-27T03:38:01.193Z,14.00
2018-06-27T03:39:01.231Z,13.30
2018-06-27T03:40:01.197Z,12.90
2018-06-27T03:41:01.183Z,13.80
2018-06-27T03:42:01.185Z,13.90
2018-06-27T03:43:01.170Z,13.70
2018-06-27T03:44:01.168Z,13.60
2018-06-27T03:45:01.170Z,14.00
2018-06-27T03:46:01.161Z,13.00
2018-06-27T03:47:01.152Z,13.60
2018-06-27T03:48:01.150Z,13.80
2018-06-27T03:49:01.163Z,13.20
2018-06-27T03:50:01.141Z,13.10
2018-06-27T03:51:01.138Z,12.70
2018-06-27T03:52:01.137Z,12.70
2018-06-27T03:53:01.129Z,12.40
2018-06-27T03:54:01.135Z,12.60
2018-06-27T03:55:01.124Z,12.00
2018-06-27T03:56:01.118Z,12.70
2018-06-27T03:57:01.116Z,11.90
2018-06-27T03:58:01.111Z,11.80
2018-06-27T03:59:01.142Z,11.30
2018-06-27T04:00:01.122Z,11.70
2018-06-27T04:01:01.101Z,11.60
2018-06-27T04:02:01.114Z,11.60
2018-06-27T04:03:01.102Z,11.70
2018-06-27T04:04:01.088Z,10.80
2018-06-27T04:05:01.087Z,11.50
2018-06-27T04:06:01.141Z,11.00
2018-06-27T04:07:01.064Z,11.60
2018-06-27T04:08:01.072Z,10.90
2018-06-27T04:09:01.068Z,10.80
2018-06-27T04:10:01.068Z,10.60
2018-06-27T04:11:01.059Z,10.80
2018-06-27T04:12:01.057Z,10.40
2018-06-27T04:13:01.252Z,10.80
2018-06-27T04:14:01.049Z,10.50
2018-06-27T04:15:01.175Z,11.20
2018-06-27T04:16:01.068Z,10.10
2018-06-27T04:17:01.043Z,10.80
2018-06-27T04:18:01.055Z,10.00
2018-06-27T04:19:01.027Z,10.10
2018-06-27T04:20:01.080Z,9.90
2018-06-27T04:21:01.023Z,9.30
2018-06-27T04:22:01.048Z,9.30
2018-06-27T04:23:01.013Z,9.70
2018-06-27T04:24:01.039Z,10.00
2018-06-27T04:25:01.021Z,9.70
2018-06-27T04:26:00.994Z,10.20
2018-06-27T04:27:00.996Z,9.60
2018-06-27T04:28:00.991Z,9.80
2018-06-27T04:29:01.004Z,9.70
2018-06-27T04:30:01.010Z,10.00
2018-06-27T04:31:00.983Z,9.60
2018-06-27T04:32:00.980Z,9.20
2018-06-27T04:33:00.995Z,9.40
2018-06-27T04:34:00.979Z,9.40
2018-06-27T04:35:00.958Z,9.90
2018-06-27T04:36:00.985Z,9.40
2018-06-27T04:37:00.955Z,9.40
2018-06-27T04:38:00.989Z,9.40
2018-06-27T04:39:00.978Z,9.20
2018-06-27T04:40:00.987Z,9.20
2018-06-27T04:41:00.954Z,8.90
2018-06-27T04:42:00.943Z,8.70
2018-06-27T04:43:01.624Z,9.20
2018-06-27T04:44:00.939Z,9.30
2018-06-27T04:45:00.927Z,9.40
2018-06-27T04:46:00.929Z,8.80
2018-06-27T04:47:00.925Z,9.50
2018-06-27T04:48:00.926Z,9.00
2018-06-27T04:49:01.225Z,9.10
2018-06-27T04:50:00.950Z,9.30
2018-06-27T04:51:00.913Z,8.90
2018-06-27T04:52:01.027Z,8.40
2018-06-27T04:53:00.905Z,9.00
2018-06-27T04:54:00.915Z,8.70
2018-06-27T04:55:01.036Z,9.30
2018-06-27T04:56:00.894Z,9.20
2018-06-27T04:57:00.892Z,8.90
2018-06-27T04:58:00.893Z,9.00
2018-06-27T04:59:00.887Z,9.20
2018-06-27T05:00:00.884Z,9.10
2018-06-27T05:01:00.885Z,9.20
2018-06-27T05:02:00.924Z,9.10
2018-06-27T05:03:00.925Z,9.60
2018-06-27T05:04:00.863Z,9.20
2018-06-27T05:05:00.870Z,8.90
2018-06-27T05:06:00.867Z,9.30
2018-06-27T05:07:00.859Z,9.10
2018-06-27T05:08:00.890Z,9.00
2018-06-27T05:09:00.866Z,8.50
2018-06-27T05:10:00.848Z,9.20
2018-06-27T05:11:00.868Z,9.00
2018-06-27T05:12:00.851Z,9.00
2018-06-27T05:13:00.886Z,9.20
2018-06-27T05:14:00.824Z,8.80
2018-06-27T05:15:00.836Z,9.00
2018-06-27T05:16:00.864Z,8.60
2018-06-27T05:17:00.826Z,8.80
2018-06-27T05:18:00.836Z,8.70
2018-06-27T05:19:00.814Z,8.70
2018-06-27T05:20:00.815Z,8.60
2018-06-27T05:21:00.820Z,8.70
2018-06-27T05:22:00.811Z,8.40
2018-06-27T05:23:00.803Z,8.90
2018-06-27T05:24:00.869Z,8.80
2018-06-27T05:25:00.802Z,8.60
2018-06-27T05:26:00.796Z,8.40
2018-06-27T05:27:00.795Z,8.60
2018-06-27T05:28:00.803Z,8.50
2018-06-27T05:29:00.809Z,8.20
2018-06-27T05:30:00.789Z,8.00
2018-06-27T05:31:00.801Z,8.20
2018-06-27T05:32:00.792Z,8.60
2018-06-27T05:33:00.777Z,8.50
2018-06-27T05:34:00.791Z,8.00
2018-06-27T05:35:00.764Z,8.20
2018-06-27T05:36:00.797Z,8.10
2018-06-27T05:37:00.787Z,8.20
2018-06-27T05:38:00.770Z,8.60
2018-06-27T05:39:00.761Z,8.30
2018-06-27T05:40:00.761Z,8.60
2018-06-27T05:41:00.755Z,7.60
2018-06-27T05:42:00.756Z,7.60
2018-06-27T05:43:00.753Z,8.60
2018-06-27T05:44:00.745Z,8.10
2018-06-27T05:45:00.754Z,8.40
2018-06-27T05:46:00.747Z,8.10
2018-06-27T05:47:00.741Z,8.10
2018-06-27T05:48:00.735Z,8.20
2018-06-27T05:49:00.733Z,8.30
2018-06-27T05:50:00.728Z,8.20
2018-06-27T05:51:00.729Z,8.30
2018-06-27T05:52:00.724Z,8.20
2018-06-27T05:53:00.722Z,8.50
2018-06-27T05:54:00.717Z,8.00
2018-06-27T05:55:00.724Z,8.10
2018-06-27T05:56:00.736Z,7.20
2018-06-27T05:57:00.711Z,8.10
2018-06-27T05:58:00.740Z,7.70
2018-06-27T05:59:00.714Z,7.80
2018-06-27T06:00:00.707Z,7.80
2018-06-27T06:01:00.699Z,7.80
2018-06-27T06:02:00.704Z,7.60
2018-06-27T06:03:00.695Z,8.00
2018-06-27T06:04:00.698Z,8.00
2018-06-27T06:05:00.705Z,8.30
2018-06-27T06:06:00.692Z,7.50
2018-06-27T06:07:00.679Z,7.80
2018-06-27T06:08:00.682Z,7.80
2018-06-27T06:09:00.688Z,7.90
2018-06-27T06:10:00.733Z,7.60
2018-06-27T06:11:00.676Z,7.70
2018-06-27T06:12:00.667Z,7.50
2018-06-27T06:13:00.671Z,8.00
2018-06-27T06:14:00.770Z,7.20
2018-06-27T06:15:00.656Z,7.30
2018-06-27T06:16:00.658Z,7.60
2018-06-27T06:17:00.649Z,7.10
2018-06-27T06:18:00.657Z,7.40
2018-06-27T06:19:00.663Z,7.80
2018-06-27T06:20:00.665Z,7.40
2018-06-27T06:21:00.653Z,7.70
2018-06-27T06:22:00.655Z,7.00
2018-06-27T06:23:00.646Z,7.10
2018-06-27T06:24:00.650Z,7.30
2018-06-27T06:25:00.644Z,7.40
2018-06-27T06:26:00.643Z,7.00
2018-06-27T06:27:00.647Z,7.00
2018-06-27T06:28:00.637Z,6.80
2018-06-27T06:29:00.631Z,7.50
2018-06-27T06:30:00.632Z,7.20
2018-06-27T06:31:00.632Z,7.70
2018-06-27T06:32:00.694Z,7.10
2018-06-27T06:33:00.629Z,6.80
2018-06-27T06:34:00.629Z,7.10
2018-06-27T06:35:00.678Z,7.30
2018-06-27T06:36:00.624Z,7.10
2018-06-27T06:37:00.622Z,7.00
2018-06-27T06:38:00.618Z,7.40
2018-06-27T06:39:00.616Z,7.30
2018-06-27T06:40:00.606Z,7.00
2018-06-27T06:41:00.612Z,7.20
2018-06-27T06:42:00.610Z,7.10
2018-06-27T06:43:00.610Z,7.00
2018-06-27T06:44:00.611Z,7.00
2018-06-27T06:45:00.632Z,6.80
2018-06-27T06:46:00.715Z,6.80
2018-06-27T06:47:00.701Z,7.50
2018-06-27T06:48:00.608Z,7.10
2018-06-27T06:49:00.791Z,7.10
2018-06-27T06:50:00.598Z,7.30
2018-06-27T06:51:00.596Z,7.20
2018-06-27T06:52:00.600Z,7.60
2018-06-27T06:53:00.612Z,7.40
2018-06-27T06:54:00.597Z,7.60
2018-06-27T06:55:00.592Z,7.60
2018-06-27T06:56:00.590Z,7.40
2018-06-27T06:57:00.592Z,7.10
2018-06-27T06:58:00.585Z,7.30
2018-06-27T06:59:00.608Z,7.00
2018-06-27T07:00:00.585Z,7.30
2018-06-27T07:01:00.589Z,7.20
2018-06-27T07:02:00.583Z,6.90
2018-06-27T07:03:00.674Z,7.40
2018-06-27T07:04:00.580Z,7.40
2018-06-27T07:05:00.653Z,7.10
2018-06-27T07:06:00.586Z,7.10
2018-06-27T07:07:00.593Z,7.20
2018-06-27T07:08:00.597Z,7.00
2018-06-27T07:09:00.577Z,7.20
2018-06-27T07:10:00.604Z,7.20
2018-06-27T07:11:00.871Z,7.20
2018-06-27T07:12:00.590Z,6.90
2018-06-27T07:13:00.591Z,6.90
2018-06-27T07:14:00.597Z,6.60
2018-06-27T07:15:00.599Z,6.20
2018-06-27T07:16:00.615Z,5.80
2018-06-27T07:17:00.619Z,6.10
2018-06-27T07:18:00.628Z,6.10
2018-06-27T07:19:00.625Z,6.20
2018-06-27T07:20:00.632Z,5.80
2018-06-27T07:21:00.654Z,5.40
2018-06-27T07:22:00.651Z,5.80
2018-06-27T07:23:00.656Z,6.10
2018-06-27T07:24:00.667Z,5.90
2018-06-27T07:25:00.679Z,5.80
2018-06-27T07:26:00.678Z,6.00
2018-06-27T07:27:00.688Z,5.70
2018-06-27T07:28:00.701Z,5.40
2018-06-27T07:29:00.709Z,6.00
2018-06-27T07:30:00.761Z,5.70
2018-06-27T07:31:00.718Z,5.50
2018-06-27T07:32:00.787Z,5.60
2018-06-27T07:33:00.738Z,5.80
2018-06-27T07:34:00.743Z,5.50
2018-06-27T07:35:00.751Z,5.30
2018-06-27T07:36:00.876Z,5.50
2018-06-27T07:37:00.780Z,5.30
2018-06-27T07:38:00.800Z,4.90
2018-06-27T07:39:00.837Z,5.20
2018-06-27T07:40:00.887Z,5.30
2018-06-27T07:41:00.947Z,5.30
2018-06-27T07:42:00.829Z,5.20
2018-06-27T07:43:00.884Z,5.00
2018-06-27T07:44:00.854Z,4.80
2018-06-27T07:45:00.974Z,4.90
2018-06-27T07:46:00.913Z,4.40
2018-06-27T07:47:00.936Z,4.70
2018-06-27T07:48:00.893Z,5.00
2018-06-27T07:49:00.900Z,4.40
2018-06-27T07:50:00.911Z,4.20
2018-06-27T07:51:00.927Z,4.10
2018-06-27T07:52:00.936Z,4.30
2018-06-27T07:53:00.951Z,4.30
2018-06-27T07:54:00.958Z,4.60
2018-06-27T07:55:00.975Z,4.10
2018-06-27T07:56:00.979Z,3.70
2018-06-27T07:57:00.993Z,4.20
2018-06-27T07:58:01.011Z,4.10
2018-06-27T07:59:01.052Z,4.00
2018-06-27T08:00:01.021Z,4.20
2018-06-27T08:01:01.081Z,3.80
2018-06-27T08:02:01.075Z,4.20
2018-06-27T08:03:01.071Z,4.00
2018-06-27T08:04:01.081Z,3.80
2018-06-27T08:05:01.105Z,4.00
2018-06-27T08:06:01.115Z,3.70
2018-06-27T08:07:01.118Z,3.80
2018-06-27T08:08:01.129Z,3.80
2018-06-27T08:09:01.152Z,3.80
2018-06-27T08:10:01.178Z,3.80
2018-06-27T08:11:01.176Z,4.00
2018-06-27T08:12:01.199Z,3.80
2018-06-27T08:13:01.187Z,3.80
2018-06-27T08:14:01.204Z,3.60
2018-06-27T08:15:01.219Z,3.80
2018-06-27T08:16:01.227Z,3.40
2018-06-27T08:17:01.242Z,3.30
2018-06-27T08:18:01.393Z,3.40
2018-06-27T08:19:01.265Z,3.30
2018-06-27T08:20:01.401Z,3.40
2018-06-27T08:21:01.285Z,3.30
2018-06-27T08:22:01.730Z,3.20
2018-06-27T08:23:01.378Z,3.50
2018-06-27T08:24:01.329Z,3.30
2018-06-27T08:25:01.378Z,3.20
2018-06-27T08:26:01.429Z,3.20
2018-06-27T08:27:01.438Z,3.20
2018-06-27T08:28:01.386Z,3.00
2018-06-27T08:29:01.418Z,3.10
2018-06-27T08:30:01.506Z,3.10
2018-06-27T08:31:01.656Z,3.10
2018-06-27T08:32:01.446Z,2.90
2018-06-27T08:33:01.463Z,3.00
2018-06-27T08:34:01.503Z,3.00
2018-06-27T08:35:01.580Z,2.60
2018-06-27T08:36:01.523Z,2.80
2018-06-27T08:37:01.525Z,2.90
2018-06-27T08:38:01.554Z,2.60
2018-06-27T08:39:01.793Z,2.90
2018-06-27T08:40:01.907Z,2.90
2018-06-27T08:41:01.869Z,3.00
2018-06-27T08:42:01.609Z,2.90
2018-06-27T08:43:01.591Z,2.60
2018-06-27T08:44:01.608Z,2.70
2018-06-27T08:45:01.625Z,2.40
2018-06-27T08:46:01.631Z,2.50
2018-06-27T08:47:01.648Z,2.80
2018-06-27T08:48:01.659Z,2.60
2018-06-27T08:49:01.670Z,2.70
2018-06-27T08:50:01.730Z,2.50
2018-06-27T08:51:01.710Z,2.60
2018-06-27T08:52:01.722Z,2.90
2018-06-27T08:53:01.735Z,2.60
2018-06-27T08:54:01.751Z,2.90
2018-06-27T08:55:01.763Z,2.60
2018-06-27T08:56:01.780Z,2.70
2018-06-27T08:57:01.798Z,2.50
2018-06-27T08:58:01.822Z,2.60
2018-06-27T08:59:01.827Z,2.80
2018-06-27T09:00:01.839Z,2.80
2018-06-27T09:01:02.023Z,2.80
2018-06-27T09:02:01.882Z,2.80
2018-06-27T09:03:01.886Z,2.90
2018-06-27T09:04:01.889Z,2.50
2018-06-27T09:05:01.917Z,2.80
2018-06-27T09:06:01.935Z,2.60
2018-06-27T09:07:01.935Z,2.60
2018-06-27T09:08:01.950Z,2.70
2018-06-27T09:09:01.971Z,2.60
2018-06-27T09:10:01.988Z,2.80
2018-06-27T09:11:01.999Z,2.80
2018-06-27T09:12:02.015Z,2.70
2018-06-27T09:13:02.058Z,3.00
2018-06-27T09:14:02.044Z,2.50
2018-06-27T09:15:02.152Z,2.40
2018-06-27T09:16:02.064Z,2.30
2018-06-27T09:17:02.818Z,2.40
2018-06-27T09:18:02.107Z,2.50
2018-06-27T09:19:02.122Z,2.50
2018-06-27T09:20:02.148Z,2.50
2018-06-27T09:21:02.146Z,2.50
2018-06-27T09:22:02.194Z,2.40
2018-06-27T09:23:02.195Z,2.40
2018-06-27T09:24:02.227Z,2.20
2018-06-27T09:25:02.207Z,2.60
2018-06-27T09:26:02.225Z,2.20
2018-06-27T09:27:02.248Z,2.40
2018-06-27T09:28:02.439Z,2.40
2018-06-27T09:29:02.265Z,2.30
2018-06-27T09:30:02.283Z,2.40
2018-06-27T09:31:02.299Z,2.60
2018-06-27T09:32:02.337Z,2.40
2018-06-27T09:33:02.324Z,2.50
2018-06-27T09:34:02.391Z,2.40
2018-06-27T09:35:02.351Z,2.30
2018-06-27T09:36:02.369Z,2.50
2018-06-27T09:37:02.383Z,2.10
2018-06-27T09:38:02.392Z,2.20
2018-06-27T09:39:02.466Z,2.40
2018-06-27T09:40:02.421Z,2.00
2018-06-27T09:41:02.440Z,2.20
2018-06-27T09:42:02.482Z,2.20
2018-06-27T09:43:02.469Z,2.40
2018-06-27T09:44:02.481Z,2.30
2018-06-27T09:45:02.541Z,2.30
2018-06-27T09:46:02.500Z,2.20
2018-06-27T09:47:02.518Z,2.30
2018-06-27T09:48:02.547Z,2.30
2018-06-27T09:49:02.541Z,2.20
2018-06-27T09:50:02.554Z,2.00
2018-06-27T09:51:02.574Z,2.20
2018-06-27T09:52:02.582Z,2.10
2018-06-27T09:53:02.601Z,1.90
2018-06-27T09:54:02.607Z,2.10
2018-06-27T09:55:02.619Z,2.10
2018-06-27T09:56:02.633Z,2.30
2018-06-27T09:57:02.705Z,2.20
2018-06-27T09:58:02.658Z,2.20
2018-06-27T09:59:02.665Z,2.10
2018-06-27T10:00:02.686Z,2.10
2018-06-27T10:01:02.712Z,2.20
2018-06-27T10:02:02.736Z,2.40
2018-06-27T10:03:02.728Z,2.20
2018-06-27T10:04:02.745Z,2.10
2018-06-27T10:05:02.767Z,2.10
2018-06-27T10:06:02.773Z,2.40
2018-06-27T10:07:02.787Z,2.20
2018-06-27T10:08:02.889Z,2.20
2018-06-27T10:09:02.823Z,2.00
2018-06-27T10:10:02.831Z,2.30
2018-06-27T10:11:02.856Z,2.20
2018-06-27T10:12:02.863Z,2.20
2018-06-27T10:13:02.868Z,2.20
2018-06-27T10:14:02.916Z,2.20
2018-06-27T10:15:02.965Z,2.30
2018-06-27T10:16:02.929Z,2.20
2018-06-27T10:17:03.033Z,2.30
2018-06-27T10:18:02.961Z,2.40
2018-06-27T10:19:02.974Z,2.40
2018-06-27T10:20:02.995Z,2.30
2018-06-27T10:21:03.001Z,2.40
2018-06-27T10:22:03.026Z,2.50
2018-06-27T10:23:03.033Z,2.60
2018-06-27T10:24:03.068Z,2.40
2018-06-27T10:25:03.112Z,2.70
2018-06-27T10:26:03.088Z,2.60
2018-06-27T10:27:03.109Z,2.60
2018-06-27T10:28:03.121Z,2.20
2018-06-27T10:29:03.134Z,2.50
2018-06-27T10:30:03.152Z,2.80
2018-06-27T10:31:03.217Z,2.70
2018-06-27T10:32:03.183Z,2.50
2018-06-27T10:33:03.205Z,2.80
2018-06-27T10:34:03.222Z,2.80
2018-06-27T10:35:03.252Z,2.20
2018-06-27T10:36:03.255Z,2.30
2018-06-27T10:37:03.274Z,2.10
2018-06-27T10:38:03.279Z,2.00
2018-06-27T10:39:03.321Z,2.00
2018-06-27T10:40:03.373Z,2.00
2018-06-27T10:41:03.322Z,2.30
2018-06-27T10:42:03.336Z,2.40
2018-06-27T10:43:03.470Z,2.20
2018-06-27T10:44:03.384Z,2.40
2018-06-27T10:45:03.371Z,2.30
2018-06-27T10:46:03.405Z,2.10
2018-06-27T10:47:03.385Z,2.30
2018-06-27T10:48:03.392Z,2.50
2018-06-27T10:49:03.397Z,2.40
2018-06-27T10:50:03.409Z,2.40
2018-06-27T10:51:03.418Z,2.50
2018-06-27T10:52:03.422Z,2.40
2018-06-27T10:53:03.426Z,2.70
2018-06-27T10:54:03.445Z,2.30
2018-06-27T10:55:03.441Z,2.10
2018-06-27T10:56:03.452Z,2.30
2018-06-27T10:57:03.472Z,2.60
2018-06-27T10:58:03.473Z,2.50
2018-06-27T10:59:03.483Z,2.20
2018-06-27T11:00:03.492Z,2.30
2018-06-27T11:01:03.539Z,2.60
2018-06-27T11:02:03.510Z,2.20
2018-06-27T11:03:03.517Z,2.30
2018-06-27T11:04:03.531Z,2.10
2018-06-27T11:05:03.544Z,1.90
2018-06-27T11:06:03.554Z,1.90
2018-06-27T11:07:03.566Z,2.20
2018-06-27T11:08:03.597Z,2.00
2018-06-27T11:09:03.590Z,2.10
2018-06-27T11:10:03.601Z,2.20
2018-06-27T11:11:03.646Z,2.30
2018-06-27T11:12:03.629Z,2.20
2018-06-27T11:13:03.647Z,2.30
2018-06-27T11:14:03.657Z,4.50
2018-06-27T11:15:03.667Z,5.40
2018-06-27T11:16:03.688Z,3.30
2018-06-27T11:17:03.700Z,6.80
2018-06-27T11:18:03.711Z,7.80
2018-06-27T11:19:03.723Z,5.50
2018-06-27T11:20:03.752Z,7.80
2018-06-27T11:21:03.842Z,16.80
2018-06-27T11:22:03.761Z,6.30
2018-06-27T11:23:03.969Z,4.50
2018-06-27T11:24:03.783Z,5.90
2018-06-27T11:25:03.798Z,3.10
2018-06-27T11:26:03.805Z,2.60
2018-06-27T11:27:03.875Z,5.10
2018-06-27T11:28:03.855Z,3.30
2018-06-27T11:29:03.836Z,3.00
2018-06-27T11:30:03.875Z,2.60
2018-06-27T11:31:03.863Z,2.20
2018-06-27T11:32:03.872Z,2.10
2018-06-27T11:33:03.981Z,2.20
2018-06-27T11:34:04.159Z,2.10
2018-06-27T11:35:04.080Z,2.10
2018-06-27T11:36:03.903Z,2.10
2018-06-27T11:37:03.928Z,2.00
2018-06-27T11:38:03.948Z,2.50
2018-06-27T11:39:03.929Z,2.10
2018-06-27T11:40:03.975Z,2.20
2018-06-27T11:41:03.969Z,2.30
2018-06-27T11:42:03.945Z,2.30
2018-06-27T11:43:04.042Z,2.10
2018-06-27T11:44:03.997Z,2.20
2018-06-27T11:45:03.973Z,2.20
2018-06-27T11:46:03.972Z,2.40
2018-06-27T11:47:03.980Z,2.10
2018-06-27T11:48:03.992Z,2.40
2018-06-27T11:49:04.042Z,2.20
2018-06-27T11:50:04.006Z,2.30
2018-06-27T11:51:03.994Z,2.40
2018-06-27T11:52:04.002Z,2.20
2018-06-27T11:53:04.101Z,2.50
2018-06-27T11:54:04.011Z,2.30
2018-06-27T11:55:04.015Z,2.10
2018-06-27T11:56:04.023Z,2.10
2018-06-27T11:57:04.030Z,1.90
2018-06-27T11:58:04.031Z,2.00
2018-06-27T11:59:04.062Z,2.20
2018-06-27T12:00:04.047Z,2.10
2018-06-27T12:01:04.059Z,1.90
2018-06-27T12:02:04.047Z,2.00
2018-06-27T12:03:04.092Z,1.90
2018-06-27T12:04:04.079Z,2.00
2018-06-27T12:05:04.075Z,2.00
2018-06-27T12:06:04.100Z,2.00
2018-06-27T12:07:04.103Z,1.80
2018-06-27T12:08:04.114Z,1.90
2018-06-27T12:09:04.120Z,1.70
2018-06-27T12:10:04.153Z,1.80
2018-06-27T12:11:04.141Z,1.70
2018-06-27T12:12:04.152Z,1.90
2018-06-27T12:13:04.164Z,1.90
2018-06-27T12:14:04.170Z,1.90
2018-06-27T12:15:04.196Z,1.80
2018-06-27T12:16:04.193Z,2.00
2018-06-27T12:17:04.212Z,2.00
2018-06-27T12:18:04.207Z,1.90
2018-06-27T12:19:04.211Z,2.10
2018-06-27T12:20:04.232Z,1.90
2018-06-27T12:21:04.241Z,2.00
2018-06-27T12:22:04.244Z,2.20
2018-06-27T12:23:04.251Z,2.10
2018-06-27T12:24:04.283Z,2.10
2018-06-27T12:25:04.276Z,2.10
2018-06-27T12:26:04.269Z,2.00
2018-06-27T12:27:04.292Z,2.10
2018-06-27T12:28:04.331Z,2.30
2018-06-27T12:29:04.291Z,2.30
2018-06-27T12:30:04.305Z,2.40
2018-06-27T12:31:04.310Z,2.20
2018-06-27T12:32:04.313Z,2.50
2018-06-27T12:33:04.321Z,2.60
2018-06-27T12:34:04.323Z,2.50
2018-06-27T12:35:04.347Z,2.60
2018-06-27T12:36:04.362Z,2.20
2018-06-27T12:37:04.345Z,2.40
2018-06-27T12:38:04.356Z,2.40
2018-06-27T12:39:04.356Z,2.30
2018-06-27T12:40:04.356Z,2.60
2018-06-27T12:41:04.368Z,2.60
2018-06-27T12:42:04.377Z,3.40
2018-06-27T12:43:04.464Z,3.20
2018-06-27T12:44:04.533Z,4.10
2018-06-27T12:45:04.408Z,2.60
2018-06-27T12:46:04.394Z,2.50
2018-06-27T12:47:04.398Z,3.60
2018-06-27T12:48:04.407Z,2.90
2018-06-27T12:49:04.414Z,2.60
2018-06-27T12:50:04.514Z,2.60
2018-06-27T12:51:04.420Z,2.70
2018-06-27T12:52:04.423Z,2.70
2018-06-27T12:53:04.421Z,2.60
2018-06-27T12:54:04.432Z,2.70
2018-06-27T12:55:04.436Z,2.50
2018-06-27T12:56:04.441Z,2.30
2018-06-27T12:57:04.443Z,2.70
2018-06-27T12:58:04.453Z,2.40
2018-06-27T12:59:04.452Z,2.90
2018-06-27T13:00:04.491Z,2.60
2018-06-27T13:01:04.463Z,2.60
2018-06-27T13:02:04.469Z,2.50
2018-06-27T13:03:04.474Z,2.40
2018-06-27T13:04:04.476Z,2.40
2018-06-27T13:05:04.485Z,2.50
2018-06-27T13:06:04.492Z,2.40
2018-06-27T13:07:04.547Z,2.50
2018-06-27T13:08:04.488Z,2.40
2018-06-27T13:09:04.758Z,2.60
2018-06-27T13:10:04.502Z,3.10
2018-06-27T13:11:04.507Z,3.20
2018-06-27T13:12:04.529Z,2.90
2018-06-27T13:13:04.525Z,2.80
2018-06-27T13:14:04.527Z,2.80
2018-06-27T13:15:04.516Z,2.60
2018-06-27T13:16:04.529Z,3.00
2018-06-27T13:17:04.530Z,3.00
2018-06-27T13:18:04.541Z,2.80
2018-06-27T13:19:04.537Z,2.60
2018-06-27T13:20:04.583Z,2.60
2018-06-27T13:21:04.547Z,2.70
2018-06-27T13:22:04.576Z,2.70
2018-06-27T13:23:04.579Z,2.90
2018-06-27T13:24:04.584Z,3.00
2018-06-27T13:25:04.562Z,2.80
2018-06-27T13:26:04.561Z,2.90
2018-06-27T13:27:04.566Z,2.70
2018-06-27T13:28:04.572Z,2.70
2018-06-27T13:29:04.590Z,2.90
2018-06-27T13:30:04.575Z,2.60
2018-06-27T13:31:04.583Z,2.50
2018-06-27T13:32:04.588Z,2.70
2018-06-27T13:33:04.584Z,2.90
2018-06-27T13:34:04.591Z,2.70
2018-06-27T13:35:04.594Z,2.80
2018-06-27T13:36:04.601Z,2.70
2018-06-27T13:37:04.602Z,2.90
2018-06-27T13:38:04.608Z,2.80
2018-06-27T13:39:04.603Z,2.70
2018-06-27T13:40:04.606Z,2.80
2018-06-27T13:41:04.597Z,2.90
2018-06-27T13:42:04.611Z,2.90
2018-06-27T13:43:04.611Z,3.10